Terminal Aerodrome Forecast
Issued by NWS

Home | Current Version | Previous Version | Text Only | Print | Product List | Glossary On
Versions: 1 2 3 4 5 6 7 8 9 10 11 12 13 14
000
FTUS45 KGJT 292003 AAB
TAFMTJ
TAF AMD
KMTJ 292003Z 2920/3018 33005KT P6SM VCSH SCT100 SCT250
      TEMPO 2920/2923 VRB22G40KT -SHRA FEW025 SCT035 BKN045
     FM300200 15006KT P6SM FEW100 SCT250
     FM301500 28006KT P6SM SCT250=

USA.gov is the U.S. government's official web portal to all federal, state and local government web resources and services.